createdAt,value
2023-01-26T00:01:31.302Z,5.56
2023-01-26T00:04:04.536Z,5.55
2023-01-26T00:06:37.402Z,5.54
2023-01-26T00:09:14.695Z,5.51
2023-01-26T00:11:47.599Z,5.50
2023-01-26T00:14:20.551Z,5.49
2023-01-26T00:16:55.364Z,5.47
2023-01-26T00:19:28.625Z,5.47
2023-01-26T00:22:01.529Z,5.41
2023-01-26T00:24:34.569Z,5.40
2023-01-26T00:27:07.501Z,5.36
2023-01-26T00:29:40.878Z,5.33
2023-01-26T00:32:15.266Z,5.30
2023-01-26T00:34:48.393Z,5.27
2023-01-26T00:37:21.438Z,5.26
2023-01-26T00:39:54.405Z,5.27
2023-01-26T00:42:27.333Z,5.26
2023-01-26T00:45:00.236Z,5.26
2023-01-26T00:47:34.687Z,5.31
2023-01-26T00:50:08.555Z,5.31
2023-01-26T00:52:41.576Z,5.34
2023-01-26T00:55:14.488Z,5.36
2023-01-26T00:57:47.394Z,5.36
2023-01-26T01:00:20.314Z,5.38
2023-01-26T01:02:56.357Z,5.36
2023-01-26T01:05:31.790Z,5.36
2023-01-26T01:08:04.815Z,5.31
2023-01-26T01:10:37.663Z,5.29
2023-01-26T01:13:10.619Z,5.28
2023-01-26T01:15:43.582Z,5.25
2023-01-26T01:18:17.951Z,5.24
2023-01-26T01:20:50.812Z,5.19
2023-01-26T01:23:23.781Z,5.17
2023-01-26T01:26:01.088Z,5.17
2023-01-26T01:28:34.821Z,5.11
2023-01-26T01:31:08.049Z,5.11
2023-01-26T01:33:42.683Z,5.09
2023-01-26T01:36:17.835Z,5.10
2023-01-26T01:38:50.836Z,5.10
2023-01-26T01:41:24.036Z,5.07
2023-01-26T01:44:13.393Z,5.09
2023-01-26T01:46:50.202Z,5.08
2023-01-26T01:49:28.328Z,5.07
2023-01-26T01:52:05.791Z,5.08
2023-01-26T01:54:41.915Z,5.10
2023-01-26T01:57:19.109Z,5.11
2023-01-26T01:59:56.532Z,5.12
2023-01-26T02:02:30.037Z,5.11
2023-01-26T02:05:11.526Z,5.12
2023-01-26T02:07:45.282Z,5.10
2023-01-26T02:10:22.280Z,5.07
2023-01-26T02:12:57.134Z,5.06
2023-01-26T02:15:31.699Z,5.05
2023-01-26T02:18:06.383Z,5.02
2023-01-26T02:20:46.619Z,5.01
2023-01-26T02:23:28.445Z,5.01
2023-01-26T02:26:14.002Z,5.00
2023-01-26T02:28:48.134Z,5.01
2023-01-26T02:31:21.316Z,5.01
2023-01-26T02:33:54.314Z,5.01
2023-01-26T02:36:29.594Z,5.02
2023-01-26T02:39:19.419Z,5.05
2023-01-26T02:42:11.861Z,5.06
2023-01-26T02:44:45.851Z,5.06
2023-01-26T02:47:20.467Z,5.08
2023-01-26T02:49:52.335Z,5.09
2023-01-26T02:52:27.292Z,5.13
2023-01-26T02:55:18.258Z,5.13
2023-01-26T02:57:53.747Z,5.16
2023-01-26T03:00:28.873Z,5.17
2023-01-26T03:03:03.219Z,5.19
2023-01-26T03:05:36.099Z,5.19
2023-01-26T03:08:09.020Z,5.19
2023-01-26T03:10:42.454Z,5.20
2023-01-26T03:13:16.732Z,5.21
2023-01-26T03:15:52.664Z,5.21
2023-01-26T03:18:42.968Z,5.21
2023-01-26T03:21:35.186Z,5.21
2023-01-26T03:24:29.654Z,5.21
2023-01-26T03:27:20.231Z,5.20
2023-01-26T03:29:54.888Z,5.21
2023-01-26T03:32:27.796Z,5.18
2023-01-26T03:35:00.619Z,5.16
2023-01-26T03:37:37.137Z,5.15
2023-01-26T03:40:29.008Z,5.15
2023-01-26T03:43:26.460Z,5.13
2023-01-26T03:46:21.785Z,5.13
2023-01-26T03:49:11.999Z,5.12
2023-01-26T03:52:01.979Z,5.13
2023-01-26T03:54:52.091Z,5.11
2023-01-26T03:57:24.911Z,5.12
2023-01-26T03:59:57.784Z,5.12
2023-01-26T04:02:49.421Z,5.14
2023-01-26T04:05:39.971Z,5.12
2023-01-26T04:08:21.880Z,5.10
2023-01-26T04:10:55.548Z,5.09
2023-01-26T04:13:45.716Z,5.10
2023-01-26T04:16:35.867Z,5.07
2023-01-26T04:19:27.655Z,5.05
2023-01-26T04:22:01.257Z,5.04
2023-01-26T04:24:34.110Z,5.05
2023-01-26T04:27:07.163Z,5.04
2023-01-26T04:29:40.116Z,5.04
2023-01-26T04:32:12.974Z,5.07
2023-01-26T04:34:47.261Z,5.09
2023-01-26T04:37:20.753Z,5.09
2023-01-26T04:39:53.698Z,5.07
2023-01-26T04:42:26.716Z,5.10
2023-01-26T04:44:59.981Z,5.08
2023-01-26T04:47:32.963Z,5.07
2023-01-26T04:50:08.288Z,5.09
2023-01-26T04:52:41.220Z,5.07
2023-01-26T04:55:14.130Z,5.07
2023-01-26T04:57:47.237Z,5.06
2023-01-26T05:00:21.496Z,5.08
2023-01-26T05:02:54.395Z,5.08
2023-01-26T05:05:28.674Z,5.08
2023-01-26T05:08:01.553Z,5.09
2023-01-26T05:10:34.808Z,5.09
2023-01-26T05:13:07.685Z,5.10
2023-01-26T05:15:40.800Z,5.13
2023-01-26T05:18:13.805Z,5.15
2023-01-26T05:20:48.581Z,5.16
2023-01-26T05:23:21.490Z,5.19
2023-01-26T05:25:54.393Z,5.19
2023-01-26T05:28:27.333Z,5.20
2023-01-26T05:31:00.265Z,5.22
2023-01-26T05:33:33.153Z,5.22
2023-01-26T05:36:08.863Z,5.25
2023-01-26T05:38:41.726Z,5.24
2023-01-26T05:41:14.598Z,5.29
2023-01-26T05:43:47.464Z,5.30
2023-01-26T05:46:20.325Z,5.31
2023-01-26T05:48:54.290Z,5.33
2023-01-26T05:51:28.532Z,5.35
2023-01-26T05:54:01.412Z,5.34
2023-01-26T05:56:34.308Z,5.35
2023-01-26T05:59:07.201Z,5.34
2023-01-26T06:01:40.438Z,5.34
2023-01-26T06:04:13.379Z,5.34
2023-01-26T06:06:47.742Z,5.34
2023-01-26T06:09:21.247Z,5.34
2023-01-26T06:11:54.129Z,5.34
2023-01-26T06:14:27.039Z,5.31
2023-01-26T06:16:59.917Z,5.31
2023-01-26T06:19:32.773Z,5.30
2023-01-26T06:22:09.131Z,5.31
2023-01-26T06:24:42.348Z,5.28
2023-01-26T06:27:16.734Z,5.26
2023-01-26T06:29:49.804Z,5.23
2023-01-26T06:32:22.652Z,5.21
2023-01-26T06:34:55.638Z,5.18
2023-01-26T06:37:29.940Z,5.16
2023-01-26T06:40:02.881Z,5.13
2023-01-26T06:42:35.802Z,5.11
2023-01-26T06:45:09.654Z,5.05
2023-01-26T06:47:46.577Z,5.03
2023-01-26T06:50:24.174Z,4.98
2023-01-26T06:53:00.967Z,4.93
2023-01-26T06:55:38.428Z,4.90
2023-01-26T06:58:12.162Z,4.86
2023-01-26T07:00:45.260Z,4.82
2023-01-26T07:03:18.147Z,4.76
2023-01-26T07:05:51.242Z,4.73
2023-01-26T07:08:25.558Z,4.70
2023-01-26T07:10:58.480Z,4.66
2023-01-26T07:13:31.336Z,4.62
2023-01-26T07:16:05.663Z,4.58
2023-01-26T07:18:38.939Z,4.56
2023-01-26T07:21:13.709Z,4.53
2023-01-26T07:23:48.308Z,4.50
2023-01-26T07:26:21.684Z,4.47
2023-01-26T07:28:54.797Z,4.47
2023-01-26T07:31:27.847Z,4.45
2023-01-26T07:34:00.724Z,4.45
2023-01-26T07:36:33.577Z,4.48
2023-01-26T07:39:08.773Z,4.48
2023-01-26T07:41:41.724Z,4.48
2023-01-26T07:44:15.108Z,4.50
2023-01-26T07:46:48.061Z,4.54
2023-01-26T07:49:20.892Z,4.57
2023-01-26T07:51:54.254Z,4.58
2023-01-26T07:54:28.694Z,4.62
2023-01-26T07:57:01.994Z,4.66
2023-01-26T07:59:35.496Z,4.69
2023-01-26T08:02:10.790Z,4.72
2023-01-26T08:04:43.742Z,4.73
2023-01-26T08:07:16.677Z,4.72
2023-01-26T08:09:50.903Z,4.73
2023-01-26T08:12:23.788Z,4.74
2023-01-26T08:14:56.629Z,4.73
2023-01-26T08:17:30.106Z,4.71
2023-01-26T08:20:03.666Z,4.71
2023-01-26T08:22:36.620Z,4.75
2023-01-26T08:25:11.473Z,4.76
2023-01-26T08:27:44.392Z,4.77
2023-01-26T08:30:18.390Z,4.79
2023-01-26T08:32:51.303Z,4.81
2023-01-26T08:35:24.183Z,4.82
2023-01-26T08:37:57.003Z,4.83
2023-01-26T08:40:31.186Z,4.83
2023-01-26T08:43:04.776Z,4.82
2023-01-26T08:45:37.741Z,4.84
2023-01-26T08:48:10.654Z,4.85
2023-01-26T08:50:43.582Z,4.87
2023-01-26T08:53:16.492Z,4.86
2023-01-26T08:55:50.842Z,4.87
2023-01-26T08:58:23.742Z,4.86
2023-01-26T09:00:56.887Z,4.86
2023-01-26T09:03:29.888Z,4.85
2023-01-26T09:06:05.418Z,4.87
2023-01-26T09:08:38.665Z,4.85
2023-01-26T09:11:13.379Z,4.86
2023-01-26T09:13:46.355Z,4.86
2023-01-26T09:16:21.193Z,4.88
2023-01-26T09:18:55.444Z,4.86
2023-01-26T09:21:28.338Z,4.86
2023-01-26T09:24:01.328Z,4.85
2023-01-26T09:26:35.640Z,4.83
2023-01-26T09:29:08.763Z,4.82
2023-01-26T09:31:41.734Z,4.82
2023-01-26T09:34:14.840Z,4.83
2023-01-26T09:36:47.693Z,4.82
2023-01-26T09:39:20.635Z,4.84
2023-01-26T09:42:08.816Z,4.87
2023-01-26T09:44:51.928Z,4.87
2023-01-26T09:47:32.114Z,4.88
2023-01-26T09:50:11.959Z,4.88
2023-01-26T09:52:55.551Z,4.87
2023-01-26T09:55:30.374Z,4.83
2023-01-26T09:58:07.917Z,4.85
2023-01-26T10:00:47.524Z,4.86
2023-01-26T10:03:28.361Z,4.85
2023-01-26T10:06:08.844Z,4.85
2023-01-26T10:08:44.672Z,4.87
2023-01-26T10:11:24.852Z,4.85
2023-01-26T10:14:03.876Z,4.85
2023-01-26T10:16:36.783Z,4.86
2023-01-26T10:19:17.904Z,4.87
2023-01-26T10:21:52.452Z,4.87
2023-01-26T10:24:25.369Z,4.87
2023-01-26T10:26:59.399Z,4.90
2023-01-26T10:29:33.993Z,4.91
2023-01-26T10:32:07.618Z,4.92
2023-01-26T10:34:41.128Z,4.92
2023-01-26T10:37:22.640Z,4.97
2023-01-26T10:40:03.975Z,4.96
2023-01-26T10:42:37.595Z,4.98
2023-01-26T10:45:29.012Z,5.02
2023-01-26T10:48:19.294Z,5.06
2023-01-26T10:50:52.510Z,5.09
2023-01-26T10:53:28.363Z,5.15
2023-01-26T10:56:04.126Z,5.18
2023-01-26T10:58:50.629Z,5.25
2023-01-26T11:01:27.602Z,5.28
2023-01-26T11:04:07.309Z,5.31
2023-01-26T11:06:40.510Z,5.31
2023-01-26T11:09:20.026Z,5.34
2023-01-26T11:11:58.537Z,5.35
2023-01-26T11:14:32.567Z,5.34
2023-01-26T11:17:20.629Z,5.38
2023-01-26T11:20:11.642Z,5.40
2023-01-26T11:22:56.022Z,5.41
2023-01-26T11:25:36.425Z,5.42
2023-01-26T11:28:32.423Z,5.43
2023-01-26T11:31:24.197Z,5.45
2023-01-26T11:34:09.059Z,5.48
2023-01-26T11:36:50.384Z,5.50
2023-01-26T11:39:30.418Z,5.52
2023-01-26T11:42:14.738Z,5.51
2023-01-26T11:45:04.620Z,5.52
2023-01-26T11:47:51.584Z,5.51
2023-01-26T11:50:36.621Z,5.53
2023-01-26T11:53:37.798Z,5.52
2023-01-26T11:56:25.511Z,5.51
2023-01-26T11:59:04.524Z,5.50
2023-01-26T12:01:42.585Z,5.50
2023-01-26T12:04:20.379Z,5.53
2023-01-26T12:06:59.963Z,5.56
2023-01-26T12:09:39.724Z,5.58
2023-01-26T12:12:18.869Z,5.59
2023-01-26T12:14:58.826Z,5.63
2023-01-26T12:17:41.506Z,5.63
2023-01-26T12:20:26.344Z,5.66
2023-01-26T12:23:05.859Z,5.67
2023-01-26T12:25:41.175Z,5.65
2023-01-26T12:28:20.668Z,5.67
2023-01-26T12:31:03.254Z,5.68
2023-01-26T12:33:37.494Z,5.68
2023-01-26T12:36:21.416Z,5.72
2023-01-26T12:39:17.492Z,5.73
2023-01-26T12:42:08.628Z,5.77
2023-01-26T12:44:43.635Z,5.81
2023-01-26T12:47:22.759Z,5.83
2023-01-26T12:50:01.403Z,5.83
2023-01-26T12:52:40.837Z,5.83
2023-01-26T12:55:19.579Z,5.82
2023-01-26T12:57:59.065Z,5.79
2023-01-26T13:00:35.652Z,5.75
2023-01-26T13:03:18.328Z,5.71
2023-01-26T13:05:58.018Z,5.66
2023-01-26T13:08:53.919Z,5.61
2023-01-26T13:11:46.741Z,5.54
2023-01-26T13:14:35.589Z,5.51
2023-01-26T13:17:48.848Z,5.45
2023-01-26T13:20:47.404Z,5.42
2023-01-26T13:23:44.540Z,5.40
2023-01-26T13:26:20.218Z,5.38
2023-01-26T13:29:31.925Z,5.36
2023-01-26T13:32:58.107Z,5.35
2023-01-26T13:35:32.442Z,5.28
2023-01-26T13:38:14.920Z,5.27
2023-01-26T13:40:50.434Z,5.24
2023-01-26T13:43:30.791Z,5.23
2023-01-26T13:46:12.208Z,5.20
2023-01-26T13:48:48.693Z,5.18
2023-01-26T13:51:25.021Z,5.18
2023-01-26T13:54:02.119Z,5.15
2023-01-26T13:56:37.324Z,5.17
2023-01-26T13:59:13.062Z,5.17
2023-01-26T14:01:49.083Z,5.17
2023-01-26T14:04:23.854Z,5.14
2023-01-26T14:07:02.263Z,5.17
2023-01-26T14:09:44.332Z,5.17
2023-01-26T14:12:22.884Z,5.17
2023-01-26T14:14:58.562Z,5.17
2023-01-26T14:17:34.768Z,5.15
2023-01-26T14:20:22.440Z,5.14
2023-01-26T14:23:14.626Z,5.11
2023-01-26T14:25:57.558Z,5.08
2023-01-26T14:28:34.490Z,5.07
2023-01-26T14:31:15.123Z,5.06
2023-01-26T14:33:52.056Z,5.01
2023-01-26T14:36:26.917Z,5.01
2023-01-26T14:39:01.325Z,4.98
2023-01-26T14:41:37.869Z,4.95
2023-01-26T14:44:11.441Z,4.95
2023-01-26T14:47:00.700Z,4.95
2023-01-26T14:49:44.731Z,4.94
2023-01-26T14:52:25.077Z,4.91
2023-01-26T14:55:00.426Z,4.91
2023-01-26T14:57:34.251Z,4.89
2023-01-26T15:00:10.284Z,4.87
2023-01-26T15:02:45.415Z,4.87
2023-01-26T15:05:22.652Z,4.87
2023-01-26T15:07:59.203Z,4.86
2023-01-26T15:10:41.042Z,4.86
2023-01-26T15:13:21.295Z,4.83
2023-01-26T15:16:05.607Z,4.85
2023-01-26T15:18:38.760Z,4.84
2023-01-26T15:21:16.124Z,4.86
2023-01-26T15:23:52.026Z,4.85
2023-01-26T15:26:28.359Z,4.86
2023-01-26T15:29:03.048Z,4.87
2023-01-26T15:31:38.250Z,4.88
2023-01-26T15:34:32.800Z,4.88
2023-01-26T15:37:32.130Z,4.90
2023-01-26T15:40:05.771Z,4.88
2023-01-26T15:42:38.595Z,4.86
2023-01-26T15:45:23.070Z,4.86
2023-01-26T15:47:56.207Z,4.84
2023-01-26T15:50:29.169Z,4.82
2023-01-26T15:53:03.504Z,4.83
2023-01-26T15:55:37.823Z,4.83
2023-01-26T15:58:10.744Z,4.81
2023-01-26T16:00:43.676Z,4.82
2023-01-26T16:03:19.428Z,4.82
2023-01-26T16:05:52.728Z,4.80
2023-01-26T16:08:27.036Z,4.81
2023-01-26T16:10:59.957Z,4.78
2023-01-26T16:13:34.145Z,4.79
2023-01-26T16:16:10.468Z,4.77
2023-01-26T16:18:43.371Z,4.78
2023-01-26T16:21:20.205Z,4.79
2023-01-26T16:23:54.532Z,4.80
2023-01-26T16:26:28.598Z,4.79
2023-01-26T16:29:01.493Z,4.78
2023-01-26T16:31:36.724Z,4.78
2023-01-26T16:34:11.267Z,4.81
2023-01-26T16:36:44.174Z,4.78
2023-01-26T16:39:18.512Z,4.79
2023-01-26T16:41:51.707Z,4.77
2023-01-26T16:44:24.677Z,4.79
2023-01-26T16:46:57.851Z,4.78
2023-01-26T16:49:30.742Z,4.78
2023-01-26T16:52:03.900Z,4.79
2023-01-26T16:54:38.551Z,4.81
2023-01-26T16:57:11.421Z,4.81
2023-01-26T16:59:44.307Z,4.80
2023-01-26T17:02:25.732Z,4.80
2023-01-26T17:04:58.577Z,4.78
2023-01-26T17:07:31.487Z,4.77
2023-01-26T17:10:06.287Z,4.79
2023-01-26T17:12:39.605Z,4.78
2023-01-26T17:15:13.709Z,4.78
2023-01-26T17:17:49.657Z,4.78
2023-01-26T17:20:22.675Z,4.79
2023-01-26T17:22:55.540Z,4.80
2023-01-26T17:25:29.830Z,4.79
2023-01-26T17:28:03.500Z,4.77
2023-01-26T17:30:36.799Z,4.77
2023-01-26T17:33:09.769Z,4.76
2023-01-26T17:35:42.665Z,4.76
2023-01-26T17:38:15.544Z,4.77
2023-01-26T17:40:55.686Z,4.79
2023-01-26T17:43:29.238Z,4.77
2023-01-26T17:46:07.482Z,4.79
2023-01-26T17:48:40.715Z,4.77
2023-01-26T17:51:16.552Z,4.76
2023-01-26T17:53:50.688Z,4.78
2023-01-26T17:56:25.053Z,4.80
2023-01-26T17:58:58.012Z,4.80
2023-01-26T18:01:31.038Z,4.83
2023-01-26T18:04:04.046Z,4.82
2023-01-26T18:06:38.645Z,4.82
2023-01-26T18:09:11.599Z,4.83
2023-01-26T18:11:45.955Z,4.86
2023-01-26T18:14:18.961Z,4.85
2023-01-26T18:16:51.862Z,4.86
2023-01-26T18:19:25.076Z,4.86
2023-01-26T18:21:57.946Z,4.86
2023-01-26T18:24:31.110Z,4.88
2023-01-26T18:27:05.376Z,4.89
2023-01-26T18:29:38.264Z,4.91
2023-01-26T18:32:11.204Z,4.90
2023-01-26T18:34:44.159Z,4.93
2023-01-26T18:37:17.221Z,4.93
2023-01-26T18:39:50.251Z,4.94
2023-01-26T18:42:24.464Z,4.96
2023-01-26T18:45:01.406Z,4.96
2023-01-26T18:47:34.295Z,4.95
2023-01-26T18:50:08.605Z,4.94
2023-01-26T18:52:42.005Z,4.93
2023-01-26T18:55:15.273Z,4.92
2023-01-26T18:57:50.845Z,4.92
2023-01-26T19:00:24.180Z,4.88
2023-01-26T19:02:57.015Z,4.87
2023-01-26T19:05:31.538Z,4.87
2023-01-26T19:08:10.706Z,4.87
2023-01-26T19:10:43.589Z,4.89
2023-01-26T19:13:18.220Z,4.90
2023-01-26T19:15:52.291Z,4.89
2023-01-26T19:18:25.339Z,4.91
2023-01-26T19:20:58.793Z,4.92
2023-01-26T19:23:32.292Z,4.94
2023-01-26T19:26:11.415Z,4.97
2023-01-26T19:28:47.001Z,4.98
2023-01-26T19:31:21.796Z,4.99
2023-01-26T19:33:56.482Z,5.01
2023-01-26T19:36:31.525Z,5.00
2023-01-26T19:39:06.614Z,5.04
2023-01-26T19:41:40.276Z,5.03
2023-01-26T19:44:14.931Z,5.07
2023-01-26T19:46:50.799Z,5.05
2023-01-26T19:49:23.667Z,5.07
2023-01-26T19:51:56.736Z,5.08
2023-01-26T19:54:29.600Z,5.08
2023-01-26T19:57:02.496Z,5.09
2023-01-26T19:59:36.779Z,5.08
2023-01-26T20:02:10.764Z,5.08
2023-01-26T20:04:45.222Z,5.07
2023-01-26T20:07:18.129Z,5.09
2023-01-26T20:09:51.122Z,5.11
2023-01-26T20:12:24.299Z,5.12
2023-01-26T20:15:00.573Z,5.15
2023-01-26T20:17:33.997Z,5.16
2023-01-26T20:20:08.284Z,5.15
2023-01-26T20:22:41.301Z,5.17
2023-01-26T20:25:14.283Z,5.19
2023-01-26T20:27:47.471Z,5.19
2023-01-26T20:30:21.958Z,5.20
2023-01-26T20:32:55.175Z,5.19
2023-01-26T20:35:28.252Z,5.23
2023-01-26T20:38:01.557Z,5.24
2023-01-26T20:40:34.444Z,5.23
2023-01-26T20:43:07.345Z,5.22
2023-01-26T20:45:42.226Z,5.25
2023-01-26T20:48:15.531Z,5.25
2023-01-26T20:50:48.725Z,5.25
2023-01-26T20:53:22.111Z,5.24
2023-01-26T20:55:58.600Z,5.26
2023-01-26T20:58:31.509Z,5.23
2023-01-26T21:01:06.896Z,5.24
2023-01-26T21:03:40.681Z,5.23
2023-01-26T21:06:15.543Z,5.22
2023-01-26T21:08:49.293Z,5.22
2023-01-26T21:11:23.740Z,5.21
2023-01-26T21:13:57.182Z,5.19
2023-01-26T21:16:32.611Z,5.20
2023-01-26T21:19:05.597Z,5.18
2023-01-26T21:21:38.588Z,5.18
2023-01-26T21:24:11.941Z,5.17
2023-01-26T21:26:44.898Z,5.18
2023-01-26T21:29:18.193Z,5.16
2023-01-26T21:31:52.574Z,5.19
2023-01-26T21:34:25.683Z,5.18
2023-01-26T21:36:58.544Z,5.17
2023-01-26T21:39:31.851Z,5.17
2023-01-26T21:42:05.117Z,5.15
2023-01-26T21:44:58.144Z,5.15
2023-01-26T21:47:32.743Z,5.15
2023-01-26T21:50:06.344Z,5.12
2023-01-26T21:52:56.689Z,5.12
2023-01-26T21:55:29.634Z,5.09
2023-01-26T21:58:25.012Z,5.08
2023-01-26T22:01:06.852Z,5.08
2023-01-26T22:03:41.190Z,5.05
2023-01-26T22:06:14.144Z,5.00
2023-01-26T22:08:47.008Z,4.99
2023-01-26T22:11:20.161Z,4.99
2023-01-26T22:13:53.371Z,4.97
2023-01-26T22:16:28.002Z,4.96
2023-01-26T22:19:03.682Z,4.95
2023-01-26T22:21:36.611Z,4.93
2023-01-26T22:24:12.045Z,4.93
2023-01-26T22:26:45.507Z,4.92
2023-01-26T22:29:18.524Z,4.92
2023-01-26T22:31:51.943Z,4.92
2023-01-26T22:34:26.733Z,4.92
2023-01-26T22:36:59.841Z,4.92
2023-01-26T22:39:32.634Z,4.89
2023-01-26T22:42:05.692Z,4.89
2023-01-26T22:44:38.579Z,4.87
2023-01-26T22:47:11.515Z,4.88
2023-01-26T22:49:45.811Z,4.85
2023-01-26T22:52:19.053Z,4.83
2023-01-26T22:54:51.896Z,4.82
2023-01-26T22:57:25.098Z,4.79
2023-01-26T22:59:58.245Z,4.77
2023-01-26T23:02:31.117Z,4.76
2023-01-26T23:05:08.047Z,4.78
2023-01-26T23:07:40.926Z,4.75
2023-01-26T23:10:14.202Z,4.77
2023-01-26T23:12:47.211Z,4.76
2023-01-26T23:15:20.112Z,4.77
2023-01-26T23:17:53.875Z,4.79
2023-01-26T23:20:28.120Z,4.80
2023-01-26T23:23:01.166Z,4.79
2023-01-26T23:25:52.251Z,4.80
2023-01-26T23:28:26.809Z,4.81
2023-01-26T23:31:00.618Z,4.78
2023-01-26T23:33:35.609Z,4.80
2023-01-26T23:36:12.602Z,4.82
2023-01-26T23:38:45.867Z,4.82
2023-01-26T23:41:18.860Z,4.84
2023-01-26T23:43:51.776Z,4.83
2023-01-26T23:46:24.734Z,4.83
2023-01-26T23:48:57.622Z,4.84
2023-01-26T23:51:32.029Z,4.85
2023-01-26T23:54:05.321Z,4.85
2023-01-26T23:56:38.227Z,4.85
2023-01-26T23:59:11.145Z,4.85
